createdAt,value
2018-05-06T00:01:36.212Z,4.27
2018-05-06T00:04:02.662Z,3.63
2018-05-06T00:06:29.126Z,3.90
2018-05-06T00:08:55.609Z,3.80
2018-05-06T00:11:22.033Z,4.60
2018-05-06T00:13:48.513Z,4.30
2018-05-06T00:16:14.991Z,3.97
2018-05-06T00:18:41.433Z,3.50
2018-05-06T00:21:07.987Z,4.03
2018-05-06T00:23:34.396Z,3.83
2018-05-06T00:26:00.804Z,4.00
2018-05-06T00:28:27.226Z,3.73
2018-05-06T00:30:53.654Z,3.70
2018-05-06T00:33:20.070Z,4.10
2018-05-06T00:35:46.503Z,3.67
2018-05-06T00:38:12.949Z,4.10
2018-05-06T00:40:39.383Z,4.27
2018-05-06T00:43:05.821Z,3.43
2018-05-06T00:45:32.321Z,3.77
2018-05-06T00:47:58.923Z,3.43
2018-05-06T00:50:26.152Z,3.43
2018-05-06T00:52:52.651Z,3.73
2018-05-06T00:55:19.064Z,4.83
2018-05-06T00:57:45.470Z,3.40
2018-05-06T01:00:11.886Z,3.93
2018-05-06T01:02:38.305Z,3.70
2018-05-06T01:05:04.749Z,3.90
2018-05-06T01:07:31.593Z,4.03
2018-05-06T01:09:58.803Z,4.33
2018-05-06T01:12:25.947Z,3.70
2018-05-06T01:14:52.430Z,3.70
2018-05-06T01:17:18.990Z,3.93
2018-05-06T01:19:45.403Z,3.90
2018-05-06T01:22:11.827Z,4.20
2018-05-06T01:24:38.272Z,3.77
2018-05-06T01:27:04.690Z,3.70
2018-05-06T01:29:31.234Z,4.20
2018-05-06T01:31:57.653Z,4.03
2018-05-06T01:34:24.097Z,4.00
2018-05-06T01:36:50.531Z,3.80
2018-05-06T01:39:17.054Z,4.00
2018-05-06T01:41:43.485Z,3.30
2018-05-06T01:44:09.893Z,4.00
2018-05-06T01:46:36.284Z,4.20
2018-05-06T01:49:02.746Z,3.97
2018-05-06T01:51:29.176Z,3.70
2018-05-06T01:53:55.596Z,3.70
2018-05-06T01:56:22.100Z,3.93
2018-05-06T01:58:49.332Z,3.63
2018-05-06T02:01:15.889Z,4.03
2018-05-06T02:03:42.428Z,3.30
2018-05-06T02:06:08.875Z,3.77
2018-05-06T02:08:36.025Z,3.70
2018-05-06T02:11:03.190Z,4.03
2018-05-06T02:13:29.828Z,3.50
2018-05-06T02:15:56.281Z,3.70
2018-05-06T02:18:22.688Z,3.80
2018-05-06T02:20:49.866Z,3.80
2018-05-06T02:23:16.262Z,3.23
2018-05-06T02:25:43.426Z,4.23
2018-05-06T02:28:09.863Z,3.63
2018-05-06T02:30:36.294Z,3.50
2018-05-06T02:33:02.724Z,4.53
2018-05-06T02:35:30.146Z,3.97
2018-05-06T02:37:56.612Z,3.70
2018-05-06T02:40:23.046Z,3.80
2018-05-06T02:42:49.512Z,4.00
2018-05-06T02:45:15.911Z,3.57
2018-05-06T02:47:42.309Z,3.50
2018-05-06T02:50:08.723Z,4.30
2018-05-06T02:52:35.931Z,4.73
2018-05-06T02:55:03.115Z,3.73
2018-05-06T02:57:29.687Z,3.43
2018-05-06T02:59:56.923Z,3.53
2018-05-06T03:02:23.338Z,3.67
2018-05-06T03:04:49.790Z,4.00
2018-05-06T03:07:16.226Z,3.40
2018-05-06T03:09:42.651Z,3.80
2018-05-06T03:12:09.082Z,3.80
2018-05-06T03:14:35.489Z,3.43
2018-05-06T03:17:01.909Z,3.40
2018-05-06T03:19:28.385Z,3.60
2018-05-06T03:21:54.779Z,3.50
2018-05-06T03:24:21.259Z,3.67
2018-05-06T03:26:47.693Z,4.10
2018-05-06T03:29:14.116Z,3.50
2018-05-06T03:31:40.494Z,3.30
2018-05-06T03:34:07.663Z,3.50
2018-05-06T03:36:34.827Z,3.20
2018-05-06T03:39:01.308Z,3.63
2018-05-06T03:41:27.729Z,3.70
2018-05-06T03:43:54.179Z,4.30
2018-05-06T03:46:20.671Z,3.60
2018-05-06T03:48:47.925Z,3.03
2018-05-06T03:51:14.406Z,4.07
2018-05-06T03:53:40.820Z,3.40
2018-05-06T03:59:33.065Z,3.17
2018-05-06T04:05:08.694Z,3.50
2018-05-06T04:07:35.124Z,3.47
2018-05-06T04:10:01.523Z,3.37
2018-05-06T04:12:28.673Z,3.90
2018-05-06T04:14:55.098Z,3.17
2018-05-06T04:17:21.610Z,3.30
2018-05-06T04:19:48.014Z,3.23
2018-05-06T04:22:14.517Z,3.43
2018-05-06T04:24:40.933Z,2.97
2018-05-06T04:27:07.393Z,3.57
2018-05-06T04:29:33.881Z,3.70
2018-05-06T04:32:00.292Z,3.20
2018-05-06T04:34:26.684Z,3.03
2018-05-06T04:36:53.872Z,3.57
2018-05-06T04:39:20.300Z,3.17
2018-05-06T04:41:46.714Z,3.50
2018-05-06T04:44:13.227Z,2.83
2018-05-06T04:46:39.587Z,3.30
2018-05-06T04:49:06.046Z,3.20
2018-05-06T04:51:32.490Z,3.33
2018-05-06T04:53:58.911Z,2.90
2018-05-06T04:56:25.334Z,2.93
2018-05-06T04:58:52.068Z,3.70
2018-05-06T05:01:18.498Z,2.73
2018-05-06T05:03:44.925Z,2.70
2018-05-06T05:06:11.377Z,2.87
2018-05-06T05:08:37.781Z,3.23
2018-05-06T05:11:04.982Z,2.80
2018-05-06T05:13:31.438Z,2.70
2018-05-06T05:15:57.832Z,3.13
2018-05-06T05:18:24.241Z,2.40
2018-05-06T05:20:51.513Z,3.20
2018-05-06T05:23:18.606Z,2.83
2018-05-06T05:25:44.997Z,2.80
2018-05-06T05:28:11.516Z,3.53
2018-05-06T05:30:37.941Z,2.73
2018-05-06T05:33:05.068Z,2.30
2018-05-06T05:35:31.462Z,2.40
2018-05-06T05:37:57.861Z,2.43
2018-05-06T05:40:25.043Z,1.97
2018-05-06T05:42:51.554Z,2.37
2018-05-06T05:45:18.006Z,2.47
2018-05-06T05:47:44.495Z,2.23
2018-05-06T05:50:10.918Z,2.80
2018-05-06T05:52:37.409Z,2.50
2018-05-06T05:55:03.885Z,2.60
2018-05-06T05:57:30.289Z,2.13
2018-05-06T05:59:56.709Z,2.93
2018-05-06T06:02:23.237Z,2.00
2018-05-06T06:04:49.688Z,2.13
2018-05-06T06:07:16.147Z,2.80
2018-05-06T06:09:43.315Z,2.63
2018-05-06T06:12:10.496Z,2.90
2018-05-06T06:14:36.896Z,2.40
2018-05-06T06:17:04.054Z,2.43
2018-05-06T06:19:31.568Z,3.10
2018-05-06T06:21:58.016Z,2.70
2018-05-06T06:24:25.233Z,2.20
2018-05-06T06:26:51.686Z,2.33
2018-05-06T06:29:18.064Z,3.10
2018-05-06T06:31:45.246Z,2.47
2018-05-06T06:34:11.689Z,2.37
2018-05-06T06:36:38.293Z,2.80
2018-05-06T06:39:04.775Z,2.57
2018-05-06T06:41:31.225Z,2.53
2018-05-06T06:43:57.682Z,2.37
2018-05-06T06:46:24.880Z,2.23
2018-05-06T06:48:51.328Z,2.50
2018-05-06T06:51:17.730Z,2.10
2018-05-06T06:53:44.150Z,2.80
2018-05-06T06:56:10.611Z,2.37
2018-05-06T06:58:37.050Z,2.17
2018-05-06T07:01:03.488Z,2.70
2018-05-06T07:03:29.934Z,2.10
2018-05-06T07:05:56.356Z,1.83
2018-05-06T07:08:22.755Z,3.03
2018-05-06T07:10:49.908Z,2.13
2018-05-06T07:13:16.324Z,1.80
2018-05-06T07:15:42.709Z,1.90
2018-05-06T07:18:09.162Z,2.37
2018-05-06T07:20:35.561Z,2.30
2018-05-06T07:23:01.961Z,1.80
2018-05-06T07:25:28.391Z,1.67
2018-05-06T07:27:54.799Z,2.33
2018-05-06T07:30:21.197Z,1.90
2018-05-06T07:32:47.662Z,1.93
2018-05-06T07:35:14.801Z,1.93
2018-05-06T07:37:41.238Z,2.03
2018-05-06T07:40:07.652Z,1.40
2018-05-06T07:42:34.093Z,1.83
2018-05-06T07:45:00.494Z,1.60
2018-05-06T07:47:26.909Z,1.40
2018-05-06T07:49:53.332Z,1.58
2018-05-06T07:52:20.475Z,1.70
2018-05-06T07:54:46.927Z,1.60
2018-05-06T07:57:13.347Z,1.40
2018-05-06T07:59:40.514Z,1.80
2018-05-06T08:02:06.996Z,1.40
2018-05-06T08:04:34.380Z,1.40
2018-05-06T08:07:01.567Z,1.70
2018-05-06T08:09:27.990Z,2.05
2018-05-06T08:11:54.431Z,1.70
2018-05-06T08:14:20.846Z,1.70
2018-05-06T08:16:47.381Z,1.60
2018-05-06T08:19:13.904Z,1.67
2018-05-06T08:21:41.060Z,1.60
2018-05-06T08:24:07.748Z,1.37
2018-05-06T08:26:35.386Z,1.48
2018-05-06T08:29:01.867Z,1.62
2018-05-06T08:31:28.301Z,1.55
2018-05-06T08:33:54.734Z,1.40
2018-05-06T08:36:21.145Z,1.60
2018-05-06T08:38:47.589Z,1.50
2018-05-06T08:41:15.485Z,1.70
2018-05-06T08:43:42.631Z,1.42
2018-05-06T08:46:09.807Z,1.70
2018-05-06T08:48:36.284Z,1.70
2018-05-06T08:51:02.734Z,1.53
2018-05-06T08:53:29.195Z,1.80
2018-05-06T08:55:55.602Z,1.67
2018-05-06T08:58:22.033Z,1.70
2018-05-06T09:00:48.569Z,2.10
2018-05-06T09:03:15.001Z,2.63
2018-05-06T09:05:41.529Z,2.03
2018-05-06T09:08:07.981Z,2.13
2018-05-06T09:10:35.149Z,2.77
2018-05-06T09:13:02.296Z,2.20
2018-05-06T09:15:28.808Z,2.30
2018-05-06T09:17:55.258Z,2.50
2018-05-06T09:20:21.748Z,2.20
2018-05-06T09:22:48.242Z,2.20
2018-05-06T09:25:14.676Z,2.60
2018-05-06T09:27:41.132Z,3.17
2018-05-06T09:30:07.600Z,2.47
2018-05-06T09:32:34.789Z,2.23
2018-05-06T09:35:01.204Z,2.43
2018-05-06T09:37:27.837Z,2.47
2018-05-06T09:39:54.244Z,2.70
2018-05-06T09:42:20.624Z,2.00
2018-05-06T09:44:47.826Z,2.67
2018-05-06T09:47:14.260Z,2.43
2018-05-06T09:49:40.738Z,2.40
2018-05-06T09:52:08.186Z,2.50
2018-05-06T09:54:35.366Z,2.60
2018-05-06T09:57:01.773Z,2.30
2018-05-06T09:59:29.034Z,2.10
2018-05-06T10:01:55.522Z,2.40
2018-05-06T10:04:21.981Z,2.67
2018-05-06T10:06:48.428Z,2.03
2018-05-06T10:09:14.904Z,1.97
2018-05-06T10:11:41.363Z,2.03
2018-05-06T10:14:07.801Z,2.80
2018-05-06T10:16:34.280Z,2.30
2018-05-06T10:19:00.684Z,2.23
2018-05-06T10:21:27.906Z,2.33
2018-05-06T10:23:54.302Z,2.10
2018-05-06T10:26:20.768Z,2.13
2018-05-06T10:28:47.223Z,2.03
2018-05-06T10:31:13.769Z,2.20
2018-05-06T10:33:40.951Z,2.83
2018-05-06T10:36:07.453Z,3.30
2018-05-06T10:38:33.915Z,2.37
2018-05-06T10:41:01.064Z,2.00
2018-05-06T10:43:27.492Z,1.70
2018-05-06T10:45:54.704Z,1.97
2018-05-06T10:48:21.120Z,2.10
2018-05-06T10:53:20.775Z,1.90
2018-05-06T10:55:47.210Z,1.70
2018-05-06T10:58:20.699Z,1.53
2018-05-06T11:00:47.134Z,2.20
2018-05-06T11:03:13.593Z,1.93
2018-05-06T11:05:40.024Z,2.10
2018-05-06T11:08:11.798Z,1.97
2018-05-06T11:10:38.929Z,2.00
2018-05-06T11:13:05.371Z,1.80
2018-05-06T11:15:32.705Z,2.17
2018-05-06T11:17:59.305Z,1.97
2018-05-06T11:20:26.599Z,1.63
2018-05-06T11:22:53.033Z,1.77
2018-05-06T11:25:20.296Z,1.37
2018-05-06T11:27:46.972Z,1.60
2018-05-06T11:30:13.804Z,1.77
2018-05-06T11:32:40.696Z,1.83
2018-05-06T11:35:07.251Z,2.00
2018-05-06T11:37:33.867Z,1.77
2018-05-06T11:40:00.273Z,2.03
2018-05-06T11:42:26.862Z,1.97
2018-05-06T11:44:54.161Z,1.40
2018-05-06T11:49:54.015Z,1.80
2018-05-06T11:52:20.425Z,2.00
2018-05-06T11:54:47.475Z,1.80
2018-05-06T11:57:14.693Z,2.53
2018-05-06T11:59:41.841Z,1.97
2018-05-06T12:02:09.075Z,3.00
2018-05-06T12:04:36.363Z,1.60
2018-05-06T12:07:02.963Z,1.87
2018-05-06T12:09:29.492Z,2.13
2018-05-06T12:11:55.968Z,1.87
2018-05-06T12:14:22.462Z,1.57
2018-05-06T12:16:49.633Z,1.80
2018-05-06T12:19:16.110Z,1.70
2018-05-06T12:21:42.648Z,1.80
2018-05-06T12:24:09.061Z,1.60
2018-05-06T12:26:35.529Z,1.73
2018-05-06T12:29:02.263Z,1.53
2018-05-06T12:31:29.558Z,1.90
2018-05-06T12:33:56.917Z,1.67
2018-05-06T12:36:24.447Z,1.70
2018-05-06T12:38:51.649Z,1.53
2018-05-06T12:41:18.152Z,1.83
2018-05-06T12:43:44.529Z,1.87
2018-05-06T12:46:11.171Z,1.30
2018-05-06T12:48:37.748Z,1.67
2018-05-06T12:51:04.136Z,1.50
2018-05-06T12:53:30.546Z,1.50
2018-05-06T12:55:57.088Z,1.20
2018-05-06T12:58:23.498Z,1.63
2018-05-06T13:00:50.632Z,1.60
2018-05-06T13:03:17.168Z,1.70
2018-05-06T13:05:43.577Z,1.80
2018-05-06T13:08:10.030Z,2.00
2018-05-06T13:10:36.449Z,1.40
2018-05-06T13:13:02.866Z,1.60
2018-05-06T13:15:29.286Z,1.47
2018-05-06T13:17:55.716Z,1.50
2018-05-06T13:20:22.152Z,1.60
2018-05-06T13:22:48.686Z,1.47
2018-05-06T13:25:15.168Z,1.63
2018-05-06T13:27:41.599Z,1.30
2018-05-06T13:30:08.033Z,1.50
2018-05-06T13:32:35.275Z,1.43
2018-05-06T13:35:01.720Z,2.00
2018-05-06T13:37:28.155Z,1.43
2018-05-06T13:39:55.335Z,1.57
2018-05-06T13:42:22.537Z,1.33
2018-05-06T13:44:48.984Z,1.27
2018-05-06T13:47:19.557Z,1.57
2018-05-06T13:49:46.380Z,2.60
2018-05-06T13:52:13.620Z,1.13
2018-05-06T13:54:40.799Z,1.50
2018-05-06T13:57:07.252Z,1.33
2018-05-06T13:59:33.730Z,1.80
2018-05-06T14:02:00.165Z,1.47
2018-05-06T14:04:26.568Z,1.60
2018-05-06T14:06:53.032Z,1.50
2018-05-06T14:09:20.089Z,1.58
2018-05-06T14:11:47.257Z,1.50
2018-05-06T14:14:13.697Z,1.53
2018-05-06T14:16:40.859Z,1.73
2018-05-06T14:19:07.277Z,1.50
2018-05-06T14:21:34.466Z,1.40
2018-05-06T14:24:01.113Z,1.60
2018-05-06T14:26:27.523Z,1.40
2018-05-06T14:28:53.944Z,1.20
2018-05-06T14:31:20.409Z,1.60
2018-05-06T14:33:46.977Z,1.43
2018-05-06T14:36:14.152Z,1.77
2018-05-06T14:38:40.577Z,1.67
2018-05-06T14:41:07.758Z,1.40
2018-05-06T14:43:34.177Z,1.20
2018-05-06T14:46:00.674Z,1.70
2018-05-06T14:48:27.232Z,1.20
2018-05-06T14:50:53.629Z,1.40
2018-05-06T14:53:20.049Z,1.50
2018-05-06T14:55:46.456Z,1.23
2018-05-06T14:58:12.861Z,1.50
2018-05-06T15:00:40.052Z,1.30
2018-05-06T15:03:06.486Z,1.20
2018-05-06T15:05:32.893Z,1.20
2018-05-06T15:07:59.349Z,1.30
2018-05-06T15:10:25.833Z,1.40
2018-05-06T15:12:52.981Z,1.00
2018-05-06T15:15:19.413Z,1.20
2018-05-06T15:17:46.663Z,1.27
2018-05-06T15:20:13.072Z,1.30
2018-05-06T15:22:39.541Z,1.30
2018-05-06T15:25:06.664Z,1.20
2018-05-06T15:27:33.108Z,1.23
2018-05-06T15:29:59.562Z,1.40
2018-05-06T15:32:26.845Z,1.20
2018-05-06T15:34:53.442Z,1.07
2018-05-06T15:37:20.617Z,1.00
2018-05-06T15:39:47.175Z,1.33
2018-05-06T15:42:13.590Z,1.30
2018-05-06T15:44:40.045Z,1.23
2018-05-06T15:47:06.463Z,1.40
2018-05-06T15:49:32.953Z,1.30
2018-05-06T15:51:59.405Z,1.20
2018-05-06T15:54:26.612Z,1.90
2018-05-06T15:56:53.046Z,1.60
2018-05-06T15:59:19.483Z,1.70
2018-05-06T16:01:58.654Z,1.40
2018-05-06T16:04:25.840Z,1.80
2018-05-06T16:06:52.277Z,1.13
2018-05-06T16:09:18.708Z,1.50
2018-05-06T16:11:45.186Z,1.30
2018-05-06T16:14:11.603Z,1.47
2018-05-06T16:16:38.821Z,1.20
2018-05-06T16:19:05.257Z,1.73
2018-05-06T16:21:31.681Z,1.50
2018-05-06T16:23:58.817Z,1.83
2018-05-06T16:26:25.275Z,1.67
2018-05-06T16:28:51.688Z,1.43
2018-05-06T16:31:18.193Z,1.70
2018-05-06T16:33:44.670Z,1.80
2018-05-06T16:36:11.081Z,2.17
2018-05-06T16:38:38.266Z,1.50
2018-05-06T16:41:04.719Z,1.70
2018-05-06T16:43:31.181Z,2.07
2018-05-06T16:45:57.616Z,2.20
2018-05-06T16:48:24.103Z,1.77
2018-05-06T16:50:50.793Z,1.60
2018-05-06T16:53:17.351Z,1.80
2018-05-06T16:55:43.864Z,1.80
2018-05-06T16:58:11.208Z,2.30
2018-05-06T17:00:38.419Z,2.33
2018-05-06T17:03:04.882Z,1.93
2018-05-06T17:05:31.400Z,1.70
2018-05-06T17:07:57.947Z,1.63
2018-05-06T17:10:25.901Z,2.23
2018-05-06T17:12:52.412Z,1.73
2018-05-06T17:15:18.897Z,1.83
2018-05-06T17:17:45.389Z,2.33
2018-05-06T17:20:11.696Z,1.93
2018-05-06T17:22:38.201Z,1.90
2018-05-06T17:25:04.949Z,1.60
2018-05-06T17:27:32.399Z,1.90
2018-05-06T17:29:58.907Z,1.80
2018-05-06T17:32:25.444Z,1.87
2018-05-06T17:34:51.996Z,1.90
2018-05-06T17:37:18.571Z,1.77
2018-05-06T17:39:45.942Z,1.70
2018-05-06T17:42:12.369Z,1.70
2018-05-06T17:44:38.870Z,2.10
2018-05-06T17:47:05.412Z,2.10
2018-05-06T17:49:32.084Z,2.27
2018-05-06T17:51:58.660Z,1.77
2018-05-06T17:54:27.273Z,1.70
2018-05-06T17:56:53.855Z,1.87
2018-05-06T17:59:20.404Z,2.10
2018-05-06T18:01:47.015Z,1.87
2018-05-06T18:04:13.689Z,2.03
2018-05-06T18:06:41.348Z,2.00
2018-05-06T18:09:08.712Z,2.10
2018-05-06T18:11:35.462Z,2.00
2018-05-06T18:14:02.245Z,1.97
2018-05-06T18:16:28.955Z,1.80
2018-05-06T18:18:55.465Z,1.87
2018-05-06T18:21:21.894Z,1.63
2018-05-06T18:23:48.321Z,2.40
2018-05-06T18:26:14.764Z,1.87
2018-05-06T18:28:41.212Z,3.00
2018-05-06T18:31:08.448Z,2.07
2018-05-06T18:33:35.660Z,1.70
2018-05-06T18:36:02.978Z,2.50
2018-05-06T18:38:30.236Z,1.90
2018-05-06T18:40:57.307Z,2.10
2018-05-06T18:43:23.831Z,2.00
2018-05-06T18:45:50.317Z,2.13
2018-05-06T18:48:17.038Z,1.70
2018-05-06T18:50:43.780Z,1.90
2018-05-06T18:53:11.302Z,1.73
2018-05-06T18:55:37.783Z,1.70
2018-05-06T18:58:04.597Z,3.80
2018-05-06T19:00:31.149Z,2.20
2018-05-06T19:02:57.633Z,1.80
2018-05-06T19:05:24.137Z,2.23
2018-05-06T19:07:50.673Z,1.97
2018-05-06T19:10:17.212Z,2.10
2018-05-06T19:12:43.645Z,2.27
2018-05-06T19:15:10.969Z,1.73
2018-05-06T19:17:37.458Z,1.63
2018-05-06T19:20:04.115Z,1.87
2018-05-06T19:22:31.348Z,1.50
2018-05-06T19:24:57.996Z,1.97
2018-05-06T19:27:24.626Z,1.60
2018-05-06T19:29:51.118Z,1.87
2018-05-06T19:32:17.611Z,2.03
2018-05-06T19:34:44.061Z,2.10
2018-05-06T19:37:11.390Z,1.73
2018-05-06T19:39:37.837Z,1.67
2018-05-06T19:42:06.166Z,1.50
2018-05-06T19:44:31.128Z,1.90
2018-05-06T19:46:57.554Z,2.13
2018-05-06T19:49:24.050Z,2.10
2018-05-06T19:51:50.566Z,1.80
2018-05-06T19:54:16.968Z,1.93
2018-05-06T19:56:43.392Z,1.80
2018-05-06T19:59:09.896Z,1.80
2018-05-06T20:01:37.077Z,1.90
2018-05-06T20:04:03.586Z,1.73
2018-05-06T20:06:30.033Z,1.80
2018-05-06T20:08:57.197Z,1.90
2018-05-06T20:11:23.689Z,2.03
2018-05-06T20:13:50.247Z,1.90
2018-05-06T20:16:17.521Z,1.90
2018-05-06T20:18:43.925Z,2.07
2018-05-06T20:21:10.438Z,1.80
2018-05-06T20:23:36.992Z,2.10
2018-05-06T20:26:04.219Z,2.33
2018-05-06T20:28:30.686Z,2.37
2018-05-06T20:30:57.889Z,2.00
2018-05-06T20:33:24.373Z,2.10
2018-05-06T20:35:50.861Z,2.20
2018-05-06T20:38:17.354Z,2.00
2018-05-06T20:40:43.745Z,2.40
2018-05-06T20:43:10.216Z,1.80
2018-05-06T20:45:36.668Z,2.03
2018-05-06T20:48:03.094Z,1.90
2018-05-06T20:50:29.538Z,3.63
2018-05-06T20:52:55.980Z,2.17
2018-05-06T20:55:22.410Z,1.90
2018-05-06T20:57:48.861Z,1.90
2018-05-06T21:00:15.257Z,2.27
2018-05-06T21:02:41.919Z,2.07
2018-05-06T21:05:08.428Z,1.80
2018-05-06T21:07:35.672Z,1.87
2018-05-06T21:10:02.123Z,1.80
2018-05-06T21:12:28.556Z,2.20
2018-05-06T21:14:55.004Z,2.50
2018-05-06T21:17:21.594Z,2.00
2018-05-06T21:19:48.785Z,1.80
2018-05-06T21:22:15.212Z,2.00
2018-05-06T21:24:41.649Z,2.63
2018-05-06T21:27:08.179Z,1.97
2018-05-06T21:29:35.594Z,3.00
2018-05-06T21:32:02.858Z,2.10
2018-05-06T21:34:29.415Z,2.10
2018-05-06T21:36:56.577Z,2.00
2018-05-06T21:39:23.895Z,1.80
2018-05-06T21:41:50.387Z,3.80
2018-05-06T21:44:16.805Z,2.00
2018-05-06T21:46:43.312Z,1.90
2018-05-06T21:49:10.526Z,1.70
2018-05-06T21:51:36.971Z,2.00
2018-05-06T21:54:03.434Z,1.93
2018-05-06T21:56:30.596Z,2.57
2018-05-06T21:58:57.744Z,1.90
2018-05-06T22:01:24.201Z,2.00
2018-05-06T22:03:50.790Z,2.63
2018-05-06T22:06:18.758Z,2.03
2018-05-06T22:08:46.010Z,2.03
2018-05-06T22:11:12.752Z,1.90
2018-05-06T22:13:39.185Z,1.93
2018-05-06T22:16:06.409Z,2.20
2018-05-06T22:18:32.885Z,1.77
2018-05-06T22:20:59.284Z,2.30
2018-05-06T22:23:25.672Z,2.10
2018-05-06T22:25:52.106Z,2.03
2018-05-06T22:28:18.520Z,1.83
2018-05-06T22:30:45.754Z,2.00
2018-05-06T22:33:12.976Z,1.90
2018-05-06T22:35:39.489Z,2.27
2018-05-06T22:38:05.977Z,2.50
2018-05-06T22:40:32.485Z,1.63
2018-05-06T22:42:58.957Z,2.20
2018-05-06T22:45:26.113Z,2.20
2018-05-06T22:47:53.343Z,1.90
2018-05-06T22:50:20.534Z,2.27
2018-05-06T22:52:53.833Z,2.47
2018-05-06T22:55:20.263Z,2.60
2018-05-06T22:57:46.688Z,1.93
2018-05-06T23:00:13.929Z,2.10
2018-05-06T23:02:41.131Z,1.90
2018-05-06T23:05:07.557Z,2.40
2018-05-06T23:07:34.009Z,1.80
2018-05-06T23:10:00.420Z,1.90
2018-05-06T23:12:26.893Z,2.03
2018-05-06T23:14:53.387Z,2.23
2018-05-06T23:17:19.823Z,2.00
2018-05-06T23:19:46.305Z,2.13
2018-05-06T23:22:13.542Z,1.80
2018-05-06T23:24:40.741Z,2.20
2018-05-06T23:27:07.170Z,2.53
2018-05-06T23:29:33.669Z,2.10
2018-05-06T23:32:00.207Z,2.13
2018-05-06T23:34:26.652Z,2.03
2018-05-06T23:36:53.141Z,2.03
2018-05-06T23:39:19.548Z,2.17
2018-05-06T23:41:46.673Z,2.00
2018-05-06T23:44:13.164Z,2.20
2018-05-06T23:46:39.566Z,2.10
2018-05-06T23:49:05.974Z,2.10
2018-05-06T23:51:33.253Z,2.17
2018-05-06T23:53:59.749Z,2.13
2018-05-06T23:56:27.018Z,1.97
2018-05-06T23:58:53.385Z,2.10
